SEVA (Osona)





Hora UTC 22:30
Temperatura 20.4 ºC
Suelo 15 cm 19.1 ºC
Humedad 79.4 %
Presión 1019.5 hPa
Pluja 0.0 mm
Velocidad viento 0.0 km/h
Dirección viento NNE
Radiación solar 0.1 W/m²

Datos diarios 2024-07-24



Hora UTC (invierno +1h; verano +2h)
Temperatura (ºC) Humedad (%) Presión (hPa) Velocidad viento (km/h) Precipitación (mm) Radiación solar (W/m²)
Hora UTC Aire Suelo 15 cm Humedad Presión Vel. Dir. Vel. Max Dir. Intent. máx 5 min. Rad. Sol.
00:05 20.3 18.6 85.6 1023.2 0.0 NNE 0.0 SSE 0.0 0.0
00:10 20.3 18.6 85.9 1023.2 0.0 NNE 0.0 SE 0.0 0.1
00:15 20.2 18.5 85.9 1023.1 0.0 NNE 0.0 SE 0.0 0.0
00:20 20.1 18.4 86.6 1023.1 0.0 NNE 0.0 SE 0.0 0.1
00:25 20.1 18.4 86.2 1023.1 0.0 NNE 0.0 SE 0.0 0.0
00:30 20.0 18.3 86.5 1023.2 0.0 NNE 0.0 NE 0.0 0.1
00:35 19.9 18.2 86.7 1023.1 0.0 NNE 0.0 ENE 0.0 0.0
00:40 19.8 18.1 86.9 1023.1 0.0 NNE 0.0 ENE 0.0 0.1
00:45 19.7 18.0 87.6 1023.1 0.0 NNE 0.0 E 0.0 0.1
00:50 19.9 18.1 88.1 1023.0 0.0 NNE 0.0 ESE 0.0 0.1
00:55 19.9 18.1 86.9 1023.0 0.0 NNE 0.0 E 0.0 0.1
01:00 19.8 18.1 87.1 1023.0 0.0 NNE 0.0 E 0.0 0.1
01:05 19.7 18.0 87.4 1023.0 0.0 NNE 0.0 SE 0.0 0.0
01:10 19.6 18.0 87.6 1022.9 0.0 NNE 0.0 SE 0.0 0.1
01:15 19.6 17.9 87.7 1022.9 0.0 NNE 0.0 ESE 0.0 0.0
01:20 19.5 17.9 87.8 1022.9 0.0 NNE 0.0 ESE 0.0 0.1
01:25 19.4 17.8 88.3 1022.9 0.0 NNE 0.0 ESE 0.0 0.0
01:30 19.3 17.7 88.7 1023.0 0.0 NNE 0.0 E 0.0 0.1
01:35 19.2 17.6 89.0 1023.0 0.0 NNE 0.0 E 0.0 0.0
01:40 19.2 17.6 89.3 1023.0 0.0 NNE 0.0 ENE 0.0 0.0
01:45 19.2 17.5 89.6 1023.0 0.0 NNE 0.0 ESE 0.0 0.1
01:50 19.3 17.5 90.0 1022.9 0.0 NNE 0.0 SE 0.0 0.1
01:55 19.5 17.5 90.2 1022.9 0.0 NNE 0.0 SE 0.0 0.1
02:00 19.4 17.5 89.4 1022.9 0.0 NNE 0.0 SE 0.0 0.0
02:05 19.3 17.5 89.3 1022.8 0.0 NNE 0.0 SE 0.0 0.1
02:10 19.2 17.5 89.3 1022.7 0.0 NNE 0.0 SE 0.0 0.1
02:15 19.1 17.4 89.6 1022.7 0.0 NNE 0.0 SE 0.0 0.1
02:20 19.0 17.3 89.7 1022.7 0.0 NNE 0.0 SSE 0.0 0.1
02:25 19.0 17.2 89.8 1022.6 0.0 NNE 0.0 S 0.0 0.1
02:30 19.1 17.2 90.5 1022.6 0.0 NNE 0.0 S 0.0 0.0
02:35 19.1 17.2 89.9 1022.5 0.0 NNE 0.0 S 0.0 0.0
02:40 19.0 17.2 89.6 1022.5 0.0 NNE 0.0 SE 0.0 0.0
02:45 18.9 17.1 89.7 1022.4 0.0 NNE 0.0 ESE 0.0 0.1
02:50 18.7 17.1 90.1 1022.4 0.0 NNE 0.0 SE 0.0 0.1
02:55 18.7 17.0 90.6 1022.4 0.0 NNE 0.0 SE 0.0 0.1
03:00 18.6 16.9 90.9 1022.3 0.0 NNE 0.0 SE 0.0 0.1
03:05 18.6 16.9 90.9 1022.2 0.0 NNE 0.0 SE 0.0 0.0
03:10 18.6 16.8 91.0 1022.2 0.0 NNE 0.0 SW 0.0 0.0
03:15 18.7 16.8 91.4 1022.2 0.0 NNE 0.0 SSW 0.0 0.1
03:20 18.9 16.8 91.7 1022.2 0.0 NNE 0.0 W 0.0 0.0
03:25 18.9 16.9 90.9 1022.2 0.0 NNE 0.0 SSW 0.0 0.1
03:30 18.9 16.8 90.3 1022.2 0.0 NNE 0.0 SSW 0.0 0.0
03:35 18.8 16.7 90.2 1022.2 0.0 NNE 0.0 SSW 0.0 0.0
03:40 18.8 16.6 90.2 1022.3 0.0 NNE 0.0 SSE 0.0 0.1
03:45 18.5 16.6 90.5 1022.3 0.0 NNE 0.0 SSE 0.0 0.1
03:50 18.4 16.5 90.8 1022.4 0.0 NNE 0.0 ENE 0.0 0.0
03:55 18.3 16.4 90.8 1022.4 0.0 NNE 0.0 E 0.0 0.0
04:00 18.2 16.4 91.3 1022.4 0.0 NNE 0.0 ESE 0.0 0.1
04:05 18.3 16.3 91.7 1022.4 0.0 NNE 0.0 E 0.0 0.0
04:10 18.2 16.3 91.5 1022.4 0.0 NNE 0.0 E 0.0 0.1
04:15 18.0 16.2 91.6 1022.4 0.0 NNE 0.0 E 0.0 0.1
04:20 17.9 16.1 92.2 1022.4 0.0 NNE 0.0 ESE 0.0 0.2
04:25 17.8 16.0 92.7 1022.4 0.0 NNE 0.0 ESE 0.0 0.6
04:30 17.9 16.0 92.9 1022.4 0.0 NNE 0.0 ESE 0.0 1.3
04:35 17.8 16.0 92.9 1022.4 0.0 NNE 0.0 ESE 0.0 2.4
04:40 17.8 16.0 93.0 1022.4 0.0 NNE 0.0 ESE 0.0 4.2
04:45 17.9 16.1 93.0 1022.3 0.0 NNE 0.0 ESE 0.0 6.3
04:50 18.1 16.1 93.0 1022.4 0.0 NNE 0.0 SE 0.0 8.8
04:55 18.0 16.2 92.2 1022.4 0.0 NNE 0.0 W 0.0 11.6
05:00 18.0 16.4 91.8 1022.4 0.0 NNE 0.0 SW 0.0 14.3
05:05 18.1 16.4 92.4 1022.4 0.0 NNE 0.0 SSW 0.0 17.0
05:10 18.2 16.6 92.3 1022.4 0.0 NNE 0.0 SSW 0.0 19.7
05:15 18.2 16.7 92.2 1022.4 0.0 NNE 0.0 SSW 0.0 22.1
05:20 18.3 16.7 92.1 1022.3 0.0 NNE 0.0 SW 0.0 24.4
05:25 18.4 16.7 91.8 1022.3 0.0 NNE 0.0 S 0.0 26.7
05:30 18.5 16.8 91.1 1022.4 0.0 NNE 0.0 S 0.0 34.1
05:35 18.7 16.9 90.8 1022.4 0.0 NNE 0.0 S 0.0 68.8
05:40 19.1 17.1 89.9 1022.3 0.0 NNE 0.0 S 0.0 121.2
05:45 19.6 17.3 88.3 1022.4 0.0 NNE 0.0 SSE 0.0 135.0
05:50 20.1 17.6 86.1 1022.4 0.0 NNE 0.0 SSE 0.0 149.4
05:55 20.7 17.9 84.5 1022.4 0.0 NNE 0.0 SSE 0.0 165.3
06:00 21.4 18.7 81.3 1022.3 0.0 NNE 0.0 SSE 0.0 179.0
06:05 22.4 20.2 78.1 1022.3 0.0 NNE 0.0 SSE 0.0 191.7
06:10 22.7 21.9 74.6 1022.3 0.0 NNE 0.0 S 0.0 205.6
06:15 22.4 23.4 75.0 1022.3 0.0 NNE 0.0 W 0.0 219.7
06:20 22.3 24.2 75.2 1022.4 0.0 NNE 0.0 WNW 0.0 234.5
06:25 22.3 25.1 75.4 1022.4 0.0 NNE 0.0 W 0.0 249.6
06:30 22.5 26.0 75.1 1022.4 0.0 NNE 0.0 WSW 0.0 264.2
06:35 22.7 26.7 74.5 1022.4 0.0 NNE 0.0 W 0.0 261.6
06:40 23.0 27.4 73.7 1022.4 0.0 NNE 0.0 W 0.0 295.2
06:45 23.3 28.1 72.2 1022.4 0.0 NNE 0.0 W 0.0 310.3
06:50 23.8 28.6 70.0 1022.3 0.0 NNE 0.0 WSW 0.0 325.7
06:55 24.0 28.7 68.5 1022.2 0.0 NNE 0.0 WNW 0.0 340.2
07:00 24.2 29.0 67.0 1022.3 0.0 NNE 0.0 W 0.0 354.5
07:05 24.2 29.2 67.2 1022.3 0.0 NNE 0.0 W 0.0 369.5
07:10 24.5 29.6 66.7 1022.3 0.0 NNE 0.0 NW 0.0 384.1
07:15 24.9 30.3 64.5 1022.4 0.0 NNE 0.0 WNW 0.0 399.4
07:20 25.1 30.8 63.0 1022.4 0.0 NNE 0.0 WNW 0.0 414.6
07:25 25.9 31.1 55.0 1022.4 0.0 NNE 0.0 NW 0.0 429.9
07:30 26.6 31.5 51.1 1022.4 0.0 NNE 0.0 S 0.0 444.5
07:35 27.1 31.6 47.7 1022.4 5.7 S 16.9 SSW 0.0 458.6
07:40 26.9 30.8 47.0 1022.4 8.6 SSW 16.9 SSE 0.0 472.5
07:45 27.2 30.8 47.1 1022.3 6.1 S 14.2 SE 0.0 486.3
07:50 27.2 31.2 46.7 1022.3 6.6 S 14.2 SE 0.0 499.8
07:55 27.1 31.3 47.3 1022.3 7.2 SSE 14.2 SE 0.0 513.9
08:00 27.3 31.6 48.0 1022.2 1.4 SSE 14.2 S 0.0 527.5
08:05 27.6 32.1 47.1 1022.2 4.5 S 11.5 SSW 0.0 539.8
08:10 27.5 32.1 46.1 1022.2 6.6 S 16.9 S 0.0 551.9
08:15 27.5 31.9 47.2 1022.2 0.0 NNE 0.0 SSW 0.0 565.0
08:20 27.6 31.8 46.4 1022.2 5.9 SSW 19.6 S 0.0 577.4
08:25 27.8 32.1 46.0 1022.2 5.5 SSE 11.5 SSE 0.0 590.3
08:30 27.8 32.4 45.4 1022.1 4.0 S 16.9 S 0.0 602.7
08:35 28.0 32.7 44.7 1022.1 0.9 SSE 14.2 SE 0.0 614.3
08:40 27.9 32.8 44.9 1022.1 5.1 SSE 19.6 SSE 0.0 626.2
08:45 27.9 32.6 44.4 1022.1 3.7 SSE 19.6 SE 0.0 638.1
08:50 28.1 32.6 44.2 1022.1 2.8 SSE 16.9 SSW 0.0 649.3
08:55 28.4 33.0 42.5 1022.0 1.2 SSE 19.6 SSE 0.0 661.2
09:00 28.1 32.6 42.4 1022.0 6.1 SSE 19.6 S 0.0 672.2
09:05 28.2 32.5 42.1 1022.0 5.6 SSE 22.3 SSE 0.0 682.5
09:10 28.5 32.9 42.5 1021.9 2.4 S 16.9 S 0.0 692.2
09:15 28.7 33.3 41.6 1021.9 0.9 SSE 16.9 S 0.0 702.6
09:20 28.8 33.5 41.7 1021.9 3.0 SW 16.9 SSW 0.0 712.9
09:25 28.9 33.8 41.3 1021.8 8.4 SSE 19.6 SE 0.0 722.4
09:30 29.2 34.1 41.2 1021.7 2.1 SSW 19.6 SSW 0.0 732.9
09:35 29.4 34.5 40.2 1021.8 6.3 S 19.6 S 0.0 741.9
09:40 29.4 34.2 40.3 1021.7 3.1 S 16.9 SSW 0.0 751.0
09:45 29.3 34.0 40.2 1021.7 4.5 SSW 22.3 SSW 0.0 759.2
09:50 29.8 34.8 40.5 1021.7 0.7 WSW 11.5 SSW 0.0 767.8
09:55 29.6 35.1 40.3 1021.7 1.4 SSE 14.2 SE 0.0 776.2
10:00 29.5 35.3 39.0 1021.7 0.0 NNE 0.0 SSE 0.0 785.6
10:05 29.7 35.4 39.7 1021.6 2.5 S 14.2 S 0.0 792.6
10:10 29.8 35.1 39.3 1021.6 2.7 SSE 22.3 SE 0.0 800.0
10:15 30.2 35.7 39.6 1021.6 0.0 NNE 0.0 S 0.0 806.0
10:20 30.6 36.2 37.8 1021.5 1.9 S 16.9 SSE 0.0 813.0
10:25 30.3 35.6 38.8 1021.5 1.2 SSE 16.9 SE 0.0 821.0
10:30 30.6 36.4 38.0 1021.4 0.3 SSW 14.2 SSW 0.0 828.0
10:35 30.1 35.6 38.6 1021.4 4.1 SSE 16.9 ESE 0.0 834.0
10:40 30.3 35.3 38.6 1021.4 5.8 S 22.3 SW 0.0 839.0
10:45 30.1 35.1 38.7 1021.3 7.8 SSE 25.0 ESE 0.0 847.0
10:50 30.3 35.3 39.0 1021.3 2.9 SSW 19.6 SSW 0.0 855.0
10:55 30.6 36.0 37.6 1021.2 6.8 SSW 16.9 S 0.0 858.0
11:00 30.4 35.9 37.5 1021.2 8.8 S 19.6 S 0.0 861.0
11:05 30.5 35.9 37.9 1021.2 1.7 SSE 11.5 SE 0.0 865.0
11:10 31.0 37.1 36.8 1021.1 0.4 SSW 14.2 SW 0.0 864.0
11:15 31.4 37.3 36.2 1021.1 7.1 SSW 22.3 S 0.0 870.0
11:20 30.9 36.8 37.2 1021.1 2.9 S 19.6 S 0.0 871.0
11:25 30.9 36.3 36.5 1021.1 4.7 SW 16.9 WSW 0.0 874.0
11:30 31.5 37.0 36.6 1021.0 0.9 SW 16.9 SSW 0.0 879.0
11:35 31.2 38.2 36.2 1021.0 0.6 WNW 14.2 WNW 0.0 877.0
11:40 31.3 38.4 36.6 1020.9 6.0 SW 19.6 SW 0.0 880.0
11:45 31.6 37.9 36.3 1020.9 4.4 SSW 16.9 WSW 0.0 881.0
11:50 31.6 37.6 36.5 1020.8 3.5 S 19.6 SSE 0.0 884.0
11:55 31.4 37.0 37.4 1020.8 2.8 SSE 16.9 SSE 0.0 883.0
12:00 31.2 37.0 37.0 1020.7 3.3 SE 14.2 SE 0.0 881.0
12:05 31.7 37.2 37.3 1020.6 2.9 SSE 16.9 ESE 0.0 880.0
12:10 31.3 36.5 38.0 1020.6 6.8 S 19.6 SSW 0.0 878.0
12:15 31.5 36.4 38.4 1020.5 5.7 SSW 22.3 S 0.0 874.0
12:20 31.5 36.6 39.1 1020.5 10.6 SSW 25.0 SW 0.0 871.0
12:25 31.4 36.4 40.0 1020.5 10.4 SSW 25.0 SW 0.0 869.0
12:30 31.3 36.0 41.4 1020.4 3.4 SSW 16.9 SSW 0.0 866.0
12:35 31.3 36.2 41.2 1020.4 4.5 S 22.3 SSW 0.0 866.0
12:40 30.9 36.0 42.3 1020.3 5.1 SE 22.3 SE 0.0 864.0
12:45 31.2 36.1 42.2 1020.3 10.9 SSE 19.6 SE 0.0 862.0
12:50 31.1 36.0 42.5 1020.3 8.8 S 19.6 SSE 0.0 857.0
12:55 31.1 36.1 42.4 1020.3 7.1 S 22.3 SSW 0.0 850.0
13:00 31.2 36.0 41.8 1020.2 10.3 SSW 22.3 SSW 0.0 845.0
13:05 31.2 35.9 41.9 1020.2 10.8 S 22.3 ESE 0.0 829.0
13:10 30.9 35.4 42.4 1020.1 11.0 S 22.3 SSW 0.0 790.0
13:15 31.3 35.9 42.2 1020.1 7.3 S 22.3 S 0.0 792.1
13:20 31.4 36.1 41.1 1020.0 9.1 SSW 16.9 S 0.0 819.0
13:25 31.8 36.6 40.4 1020.0 7.2 SSW 22.3 S 0.0 812.0
13:30 31.8 36.9 39.2 1019.9 6.3 S 25.0 S 0.0 809.0
13:35 31.5 36.3 38.9 1020.0 9.9 S 25.0 S 0.0 801.0
13:40 31.5 36.1 37.7 1019.9 14.3 SSW 27.7 S 0.0 794.4
13:45 31.4 35.8 38.3 1019.9 11.3 SSW 25.0 S 0.0 789.2
13:50 31.5 35.8 38.2 1019.8 11.6 SSW 25.0 SW 0.0 783.4
13:55 31.4 35.7 38.5 1019.8 9.7 S 25.0 SSW 0.0 775.6
14:00 31.4 35.7 38.8 1019.8 13.1 SSW 25.0 SW 0.0 767.0
14:05 31.2 35.6 40.4 1019.7 12.2 SSW 27.7 SW 0.0 758.0
14:10 31.1 35.5 41.1 1019.7 10.0 SSW 30.4 SSW 0.0 750.0
14:15 31.2 35.7 41.8 1019.7 6.3 SSW 22.3 SSW 0.0 741.7
14:20 31.5 36.1 41.5 1019.6 6.8 SSW 25.0 S 0.0 731.5
14:25 31.4 35.9 42.3 1019.5 6.8 SSW 22.3 SSW 0.0 720.4
14:30 31.6 36.4 42.7 1019.5 1.7 SSW 14.2 S 0.0 710.7
14:35 31.5 36.8 44.0 1019.5 4.4 SSE 19.6 SE 0.0 701.4
14:40 30.7 35.8 44.4 1019.5 12.5 S 22.3 SE 0.0 694.2
14:45 30.5 35.0 46.1 1019.5 10.7 S 25.0 SSW 0.0 684.4
14:50 30.4 34.8 46.8 1019.4 9.2 S 25.0 SSE 0.0 673.7
14:55 30.7 34.9 46.4 1019.5 9.0 S 25.0 SSW 0.0 661.5
15:00 30.3 34.3 47.7 1019.5 10.9 SSE 22.3 SSW 0.0 647.3
15:05 30.3 34.6 47.7 1019.5 4.9 S 22.3 SW 0.0 631.2
15:10 30.3 34.9 47.2 1019.4 8.1 S 25.0 W 0.0 618.6
15:15 30.6 34.9 46.3 1019.4 7.4 SSW 25.0 SSW 0.0 612.2
15:20 30.5 34.4 45.9 1019.4 13.1 S 27.7 S 0.0 600.3
15:25 30.3 33.9 45.9 1019.3 10.5 SSW 25.0 SW 0.0 589.5
15:30 30.2 34.1 45.9 1019.3 11.2 SSW 25.0 SW 0.0 575.9
15:35 30.0 33.7 46.1 1019.3 7.8 SSW 22.3 S 0.0 560.3
15:40 30.4 34.1 45.3 1019.2 9.0 SSW 22.3 WSW 0.0 547.2
15:45 30.3 34.2 45.4 1019.2 10.1 SSW 22.3 SW 0.0 535.7
15:50 30.1 33.9 45.4 1019.2 15.2 SSW 27.7 S 0.0 523.0
15:55 29.9 33.3 45.5 1019.2 9.2 SSW 22.3 S 0.0 509.4
16:00 30.0 33.7 44.7 1019.2 11.1 SSW 22.3 SW 0.0 492.6
16:05 30.2 33.9 44.6 1019.1 7.5 SSW 22.3 WSW 0.0 479.5
16:10 30.3 34.2 44.4 1019.1 5.2 SSW 19.6 S 0.0 466.8
16:15 30.4 34.3 43.8 1019.1 5.8 SSW 22.3 SSW 0.0 454.8
16:20 30.2 34.0 43.8 1019.0 4.2 SSW 19.6 S 0.0 444.4
16:25 30.3 33.8 43.9 1019.0 5.0 S 22.3 S 0.0 426.6
16:30 30.0 33.3 44.6 1019.0 7.7 SSW 22.3 S 0.0 413.9
16:35 29.7 32.8 45.1 1019.0 1.4 SSW 16.9 SSE 0.0 397.9
16:40 30.0 33.0 44.5 1019.0 3.7 S 19.6 SSW 0.0 383.4
16:45 30.0 33.1 44.7 1018.9 4.0 SSW 19.6 SSW 0.0 369.7
16:50 29.8 32.3 44.7 1018.9 3.1 SSW 19.6 SSW 0.0 355.7
16:55 29.8 31.2 44.6 1018.9 5.7 SSW 19.6 SSW 0.0 340.8
17:00 29.5 30.6 45.5 1018.9 6.3 SSW 19.6 S 0.0 326.7
17:05 29.3 30.8 46.0 1018.9 9.6 S 19.6 SSW 0.0 310.4
17:10 29.3 31.0 46.5 1018.9 7.3 S 22.3 SSW 0.0 295.7
17:15 29.2 31.2 46.4 1019.0 5.8 SSW 19.6 WSW 0.0 281.2
17:20 29.2 31.1 46.6 1019.0 9.9 SSW 25.0 S 0.0 266.2
17:25 28.8 30.8 48.4 1019.0 5.9 SSW 19.6 SW 0.0 250.2
17:30 28.7 30.7 48.5 1019.0 5.9 SW 16.9 SSW 0.0 235.7
17:35 28.7 30.6 47.7 1019.0 4.9 SSW 22.3 SW 0.0 222.0
17:40 28.6 30.5 48.8 1019.0 5.3 SSW 19.6 S 0.0 208.4
17:45 28.4 30.1 50.4 1019.0 8.1 SSW 23.7 SSW 0.0 194.2
17:50 28.3 29.8 50.9 1019.0 3.6 SSW 16.9 S 0.0 180.2
17:55 28.1 29.5 51.3 1019.0 4.3 SSW 16.9 SSW 0.0 166.3
18:00 28.0 29.4 51.5 1019.0 3.9 SSW 19.6 SW 0.0 153.3
18:05 27.8 29.2 51.6 1019.1 5.6 SSW 19.6 S 0.0 140.8
18:10 27.7 28.8 52.0 1019.1 4.5 SSW 16.9 S 0.0 127.1
18:15 27.5 28.6 52.8 1019.1 2.5 SW 16.9 SSW 0.0 112.8
18:20 27.3 28.2 52.7 1019.1 5.1 SSW 19.6 SSW 0.0 100.1
18:25 27.2 27.8 53.2 1019.2 3.4 SSW 14.2 SW 0.0 88.2
18:30 26.9 27.4 54.2 1019.2 0.0 NNE 0.0 SSW 0.0 76.8
18:35 26.8 27.2 54.6 1019.2 1.1 SSW 14.2 S 0.0 66.0
18:40 26.7 26.9 55.5 1019.3 0.0 NNE 0.0 S 0.0 55.7
18:45 26.5 26.5 56.3 1019.3 0.0 NNE 0.0 S 0.0 46.8
18:50 26.3 25.9 57.2 1019.4 0.2 SSE 11.5 S 0.0 38.2
18:55 25.9 25.3 58.8 1019.3 0.4 SSE 11.5 SSE 0.0 27.7
19:00 25.6 24.9 60.0 1019.4 0.0 NNE 0.0 SSE 0.0 19.2
19:05 25.3 24.5 60.9 1019.4 0.0 NNE 0.0 SE 0.0 13.5
19:10 25.1 24.2 61.6 1019.4 0.3 SSW 11.5 S 0.0 9.7
19:15 24.9 23.9 62.5 1019.4 0.0 SSE 4.8 S 0.0 5.8
19:20 24.7 23.7 63.1 1019.5 0.4 S 11.5 SSW 0.0 3.9
19:25 24.5 23.5 63.7 1019.4 1.5 S 11.5 S 0.0 2.6
19:30 24.3 23.4 64.4 1019.4 0.7 S 11.5 S 0.0 1.6
19:35 24.1 23.2 64.6 1019.4 0.0 NNE 0.0 S 0.0 0.8
19:40 24.0 23.0 65.2 1019.5 0.0 NNE 0.0 SSE 0.0 0.4
19:45 23.8 22.8 65.9 1019.5 0.0 NNE 0.0 SW 0.0 0.2
19:50 23.7 22.7 66.3 1019.5 0.0 NNE 0.0 WSW 0.0 0.1
19:55 23.5 22.5 67.0 1019.5 0.0 NNE 0.0 SSW 0.0 0.1
20:00 23.4 22.2 68.1 1019.6 0.0 NNE 0.0 SE 0.0 0.1
20:05 23.2 21.9 68.8 1019.6 0.0 NNE 0.0 SSE 0.0 0.1
20:10 23.0 21.8 69.4 1019.6 0.0 NNE 0.0 SSW 0.0 0.1
20:15 22.8 21.5 70.6 1019.6 0.0 NNE 0.0 SW 0.0 0.1
20:20 22.5 21.3 71.1 1019.7 0.0 NNE 0.0 S 0.0 0.1
20:25 22.4 21.1 72.1 1019.7 0.0 NNE 0.0 SSW 0.0 0.1
20:30 22.3 21.1 72.3 1019.7 0.0 NNE 0.0 SSW 0.0 0.1
20:35 22.3 21.1 72.5 1019.7 0.0 NNE 0.0 SSE 0.0 0.1
20:40 22.2 21.0 73.2 1019.7 0.0 NNE 0.0 SE 0.0 0.1
20:45 22.1 20.9 73.4 1019.7 0.0 NNE 0.0 SSW 0.0 0.0
20:50 21.9 20.8 74.1 1019.7 0.0 NNE 0.0 SSW 0.0 0.1
20:55 21.9 20.8 74.3 1019.7 0.0 NNE 0.0 SSW 0.0 0.0
21:00 22.0 20.7 74.6 1019.7 0.0 NNE 0.0 SE 0.0 0.0
21:05 21.9 20.7 74.3 1019.7 0.0 NNE 0.0 S 0.0 0.1
21:10 21.9 20.6 75.0 1019.7 0.0 NNE 0.0 SSE 0.0 0.0
21:15 21.9 20.6 75.3 1019.7 0.0 NNE 0.0 SE 0.0 0.0
21:20 21.9 20.5 75.0 1019.7 0.0 NNE 0.0 SSE 0.0 0.0
21:25 21.7 20.3 76.2 1019.7 0.0 NNE 0.0 E 0.0 0.0
21:30 21.6 20.2 77.3 1019.7 0.0 NNE 0.0 ESE 0.0 0.1
21:35 21.5 20.1 77.8 1019.7 0.0 NNE 0.0 ESE 0.0 0.0
21:40 21.4 20.0 77.7 1019.6 0.0 NNE 0.0 ESE 0.0 0.0
21:45 21.4 20.0 77.1 1019.7 0.0 NNE 0.0 SSE 0.0 0.1
21:50 21.4 19.9 76.4 1019.7 0.0 NNE 0.0 ESE 0.0 0.0
21:55 21.3 19.8 77.8 1019.6 0.0 NNE 0.0 SE 0.0 0.1
22:00 21.1 19.7 78.1 1019.6 0.0 NNE 0.0 S 0.0 0.0
22:05 20.9 19.6 78.0 1019.6 0.0 NNE 0.0 ENE 0.0 0.1
22:10 20.9 19.4 77.9 1019.7 0.0 NNE 0.0 ENE 0.0 0.1
22:15 20.7 19.3 78.0 1019.7 0.0 NNE 0.0 ESE 0.0 0.1
22:20 20.6 19.2 79.0 1019.6 0.0 NNE 0.0 SSE 0.0 0.1
22:25 20.5 19.1 78.7 1019.6 0.0 NNE 0.0 SSE 0.0 0.1
22:30 20.4 19.1 79.4 1019.5 0.0 NNE 0.0 ESE 0.0 0.1
Máxima 31.9 38.4 93.0 1023.2 15.2 SSW 30.4 SSW 0.0 884.0
Mínima 17.7 16.0 36.2 1018.9
Total 0.0